EZY2586 EGPF-EINN
Flight info
| Callsign | EZY2586 |
|---|---|
| Flight time | N/A |
| Altitude | 24000 |
| Route | NORBO L186 TRN P600 BLACA P620 NIMAT/N0442F380 DCT DUB DCT PELIG DCT DIGAN DIGAN2D |
| Aircraft | A20N/M-SDE2E3FGHIRWXY/LB1 |
Departure
| Time | 2026-04-30 21:30 |
|---|---|
| Airport | Glasgow Airport (EGPF) |
Arrival
| Time | N/A |
|---|---|
| Airport | Shannon Airport (EINN) |
| Time | Latitude | Longitude | Altitude | Speed | Heading |
|---|---|---|---|---|---|
| 2026-04-30 20:58 | 55.86710 | -4.43029 | 33 ft | 0 kts | 253° |
| 2026-04-30 21:16 | 55.86713 | -4.43010 | 34 ft | 3 kts | 253° |
| 2026-04-30 21:17 | 55.86715 | -4.42977 | 31 ft | 3 kts | 309° |
| 2026-04-30 21:17 | 55.86711 | -4.42968 | 32 ft | 0 kts | 336° |
| 2026-04-30 21:24 | 55.86712 | -4.42969 | 33 ft | 1 kts | 336° |
| 2026-04-30 21:24 | 55.86731 | -4.42975 | 32 ft | 5 kts | 356° |
| 2026-04-30 21:25 | 55.86845 | -4.43035 | 34 ft | 4 kts | 298° |
| 2026-04-30 21:25 | 55.86838 | -4.43089 | 35 ft | 9 kts | 254° |
| 2026-04-30 21:25 | 55.86811 | -4.43246 | 35 ft | 18 kts | 253° |
| 2026-04-30 21:26 | 55.86673 | -4.43861 | 31 ft | 34 kts | 226° |
| 2026-04-30 21:26 | 55.86499 | -4.44187 | 36 ft | 38 kts | 226° |
| 2026-04-30 21:27 | 55.86255 | -4.44728 | 33 ft | 5 kts | 311° |
| 2026-04-30 21:27 | 55.86280 | -4.44761 | 34 ft | 1 kts | 320° |
| 2026-04-30 21:28 | 55.86281 | -4.44762 | 34 ft | 0 kts | 320° |
| 2026-04-30 21:28 | 55.86368 | -4.44851 | 36 ft | 11 kts | 10° |
| 2026-04-30 21:29 | 55.86440 | -4.44732 | 37 ft | 20 kts | 46° |
| 2026-04-30 21:29 | 55.88161 | -4.41425 | 251 ft | 217 kts | 48° |
| 2026-04-30 21:30 | 55.90232 | -4.37468 | 2655 ft | 220 kts | 51° |
| 2026-04-30 21:31 | 55.93607 | -4.30927 | 5953 ft | 255 kts | 50° |
| 2026-04-30 21:31 | 55.96044 | -4.26153 | 8291 ft | 265 kts | 51° |